Time;durP1;ratioP1;P1;durP2;ratioP2;P2;SDS_P1;SDS_P2;PMS_P1;PMS_P2;Temp;Humidity;BMP_temperature;BMP_pressure;BME280_temperature;BME280_humidity;BME280_pressure;Samples;Min_cycle;Max_cycle;Signal;HPM_P1;HPM_P2
2023/06/27 00:01:39;;;;;;;11.93;7.93;;;;;;;;;;5095042;28;20131;-83
2023/06/27 00:04:05;;;;;;;13.40;7.60;;;;;;;;;;5095143;28;20106;-83
2023/06/27 00:06:30;;;;;;;10.38;7.85;;;;;;;;;;5110674;28;20127;-83
2023/06/27 00:08:56;;;;;;;11.18;7.68;;;;;;;;;;5127813;27;20024;-83
2023/06/27 00:11:21;;;;;;;14.52;8.48;;;;;;;;;;5114285;28;20020;-84
2023/06/27 00:13:48;;;;;;;12.55;8.52;;;;;;;;;;5106613;28;20028;-82
2023/06/27 00:16:13;;;;;;;13.13;8.00;;;;;;;;;;5093586;28;20024;-82
2023/06/27 00:18:47;;;;;;;13.38;7.65;;;;;;;;;;5094456;28;20028;-83
2023/06/27 00:21:13;;;;;;;11.05;7.78;;;;;;;;;;5092956;28;20047;-83
2023/06/27 00:23:39;;;;;;;15.07;8.48;;;;;;;;;;5093529;28;20020;-83
2023/06/27 00:26:06;;;;;;;11.93;7.68;;;;;;;;;;5094952;28;20032;-82
2023/06/27 00:28:32;;;;;;;15.27;8.27;;;;;;;;;;5110162;28;20032;-83
2023/06/27 00:30:57;;;;;;;12.23;8.02;;;;;;;;;;5101003;28;20035;-83
2023/06/27 00:33:23;;;;;;;16.42;8.57;;;;;;;;;;5120169;28;20042;-83
2023/06/27 00:35:48;;;;;;;18.30;8.25;;;;;;;;;;5110724;28;20467;-83
2023/06/27 00:38:13;;;;;;;10.07;7.68;;;;;;;;;;5094201;28;20024;-82
2023/06/27 00:40:39;;;;;;;13.25;7.90;;;;;;;;;;5076205;28;20035;-82
2023/06/27 00:43:04;;;;;;;10.40;7.90;;;;;;;;;;5059540;28;20040;-82
2023/06/27 00:45:30;;;;;;;14.32;8.82;;;;;;;;;;5094658;28;20012;-83
2023/06/27 00:48:00;;;;;;;13.27;8.32;;;;;;;;;;5094377;28;20032;-83
2023/06/27 00:50:27;;;;;;;13.00;8.32;;;;;;;;;;5081007;28;20043;-83
2023/06/27 00:52:52;;;;;;;12.20;8.13;;;;;;;;;;5072116;28;20048;-84
2023/06/27 00:55:18;;;;;;;11.02;7.95;;;;;;;;;;5094940;28;20470;-83
2023/06/27 00:57:46;;;;;;;14.32;8.05;;;;;;;;;;5076369;28;20461;-83
2023/06/27 01:00:12;;;;;;;13.63;8.05;;;;;;;;;;5094377;28;20034;-83
2023/06/27 01:02:38;;;;;;;15.35;8.75;;;;;;;;;;5126769;28;20051;-83
2023/06/27 01:05:05;;;;;;;13.50;8.70;;;;;;;;;;5076025;28;20023;-83
2023/06/27 01:07:34;;;;;;;12.75;8.40;;;;;;;;;;5093081;28;20082;-82
2023/06/27 01:10:03;;;;;;;13.60;8.40;;;;;;;;;;5113211;28;20031;-82
2023/06/27 01:12:44;;;;;;;12.88;8.27;;;;;;;;;;5104343;28;20055;-83
2023/06/27 01:15:09;;;;;;;13.38;8.40;;;;;;;;;;5076547;28;20079;-82
2023/06/27 01:17:35;;;;;;;13.50;8.05;;;;;;;;;;5093321;28;20032;-82
2023/06/27 01:20:01;;;;;;;17.30;8.35;;;;;;;;;;5094146;28;20180;-83
2023/06/27 01:22:30;;;;;;;12.48;8.10;;;;;;;;;;5076005;28;20403;-83
2023/06/27 01:24:56;;;;;;;13.97;8.23;;;;;;;;;;5092671;28;20064;-82
2023/06/27 01:27:22;;;;;;;12.70;8.30;;;;;;;;;;5092823;28;20039;-82
2023/06/27 01:29:48;;;;;;;12.27;8.57;;;;;;;;;;5112775;28;20032;-83
2023/06/27 01:32:25;;;;;;;12.45;8.35;;;;;;;;;;5089470;28;20036;-84
2023/06/27 01:34:57;;;;;;;14.52;8.82;;;;;;;;;;5129933;27;20024;-83
2023/06/27 01:37:29;;;;;;;14.05;8.77;;;;;;;;;;5096680;28;20474;-82
2023/06/27 01:40:09;;;;;;;11.40;8.60;;;;;;;;;;5079724;28;20439;-82
2023/06/27 01:42:35;;;;;;;17.50;8.40;;;;;;;;;;5064596;28;20036;-83
2023/06/27 01:45:02;;;;;;;12.50;8.88;;;;;;;;;;5096128;28;20035;-83
2023/06/27 01:47:27;;;;;;;11.88;8.75;;;;;;;;;;5079480;28;20430;-82
2023/06/27 01:49:53;;;;;;;11.73;8.55;;;;;;;;;;5084526;28;20036;-82
2023/06/27 01:52:19;;;;;;;12.95;8.30;;;;;;;;;;5124211;28;20027;-82
2023/06/27 01:54:44;;;;;;;13.50;8.57;;;;;;;;;;5096434;28;20032;-82
2023/06/27 01:57:10;;;;;;;14.43;8.93;;;;;;;;;;5079165;28;20028;-82
2023/06/27 01:59:35;;;;;;;23.60;8.07;;;;;;;;;;5079131;28;20496;-82
2023/06/27 02:02:01;;;;;;;12.52;8.73;;;;;;;;;;5079047;28;20051;-82
2023/06/27 02:04:27;;;;;;;12.82;8.48;;;;;;;;;;5097791;28;20051;-81
2023/06/27 02:06:53;;;;;;;16.23;8.38;;;;;;;;;;5121005;28;20020;-82
2023/06/27 02:09:18;;;;;;;15.40;8.30;;;;;;;;;;5112297;28;20036;-82
2023/06/27 02:11:45;;;;;;;12.15;8.48;;;;;;;;;;5110507;28;20172;-82
2023/06/27 02:14:11;;;;;;;15.35;8.70;;;;;;;;;;5079481;28;20028;-82
2023/06/27 02:16:37;;;;;;;13.98;8.52;;;;;;;;;;5130179;27;20035;-81
2023/06/27 02:19:02;;;;;;;12.60;8.70;;;;;;;;;;5095563;28;20370;-81
2023/06/27 02:21:27;;;;;;;11.80;8.23;;;;;;;;;;5096775;28;20024;-82
2023/06/27 02:23:53;;;;;;;13.93;8.60;;;;;;;;;;5079290;28;20031;-82
2023/06/27 02:26:18;;;;;;;19.67;8.27;;;;;;;;;;5112652;28;20170;-81
2023/06/27 02:28:44;;;;;;;12.40;9.13;;;;;;;;;;5078555;28;20594;-81
2023/06/27 02:31:09;;;;;;;15.27;8.80;;;;;;;;;;5146150;27;20047;-81
2023/06/27 02:33:34;;;;;;;13.57;8.68;;;;;;;;;;5096069;28;20348;-81
2023/06/27 02:36:00;;;;;;;12.00;8.55;;;;;;;;;;5095592;28;20032;-81
2023/06/27 02:38:25;;;;;;;13.45;9.13;;;;;;;;;;5095364;28;20031;-81
2023/06/27 02:40:51;;;;;;;16.00;8.13;;;;;;;;;;5095640;28;20470;-81
2023/06/27 02:43:17;;;;;;;12.40;8.10;;;;;;;;;;5129336;27;20032;-81
2023/06/27 02:45:42;;;;;;;15.30;8.50;;;;;;;;;;5078094;28;20303;-80
2023/06/27 02:48:08;;;;;;;13.38;8.23;;;;;;;;;;5096564;28;20039;-81
2023/06/27 02:50:33;;;;;;;13.57;9.43;;;;;;;;;;5110362;28;20024;-81
2023/06/27 02:52:59;;;;;;;14.85;8.77;;;;;;;;;;5097604;28;20043;-81
2023/06/27 02:55:24;;;;;;;15.38;8.90;;;;;;;;;;5096465;28;20047;-81
2023/06/27 02:57:49;;;;;;;15.70;8.90;;;;;;;;;;5095012;28;20084;-82
2023/06/27 03:00:15;;;;;;;15.45;9.00;;;;;;;;;;5129026;27;20031;-81
2023/06/27 03:02:41;;;;;;;14.32;8.88;;;;;;;;;;5096111;28;20062;-82
2023/06/27 03:05:06;;;;;;;11.73;7.95;;;;;;;;;;5095773;28;20036;-81
2023/06/27 03:07:32;;;;;;;12.07;8.40;;;;;;;;;;5095991;28;20032;-82
2023/06/27 03:09:57;;;;;;;15.10;9.20;;;;;;;;;;5105383;28;20031;-82
2023/06/27 03:12:22;;;;;;;16.00;9.30;;;;;;;;;;5095559;28;20075;-82
2023/06/27 03:14:48;;;;;;;14.52;9.38;;;;;;;;;;5095542;28;20032;-82
2023/06/27 03:17:14;;;;;;;13.27;8.43;;;;;;;;;;5128979;27;20028;-82
2023/06/27 03:19:39;;;;;;;18.75;9.40;;;;;;;;;;5129027;27;20032;-82
2023/06/27 03:22:05;;;;;;;12.57;8.85;;;;;;;;;;5096465;28;20316;-82
2023/06/27 03:24:31;;;;;;;13.68;8.75;;;;;;;;;;5111747;28;20463;-82
2023/06/27 03:26:56;;;;;;;14.30;9.65;;;;;;;;;;5128623;27;20032;-81
2023/06/27 03:29:21;;;;;;;12.85;8.57;;;;;;;;;;5100088;28;20040;-82
2023/06/27 03:31:47;;;;;;;16.70;9.82;;;;;;;;;;5122570;28;20036;-82
2023/06/27 03:34:12;;;;;;;16.58;9.00;;;;;;;;;;5095696;28;20043;-82
2023/06/27 03:36:38;;;;;;;15.25;9.35;;;;;;;;;;5111305;28;20036;-82
2023/06/27 03:39:04;;;;;;;16.00;9.43;;;;;;;;;;5111796;28;20031;-81
2023/06/27 03:41:30;;;;;;;19.92;10.15;;;;;;;;;;5096483;28;20063;-82
2023/06/27 03:43:55;;;;;;;17.42;9.00;;;;;;;;;;5096063;28;20031;-82
2023/06/27 03:46:20;;;;;;;13.00;8.77;;;;;;;;;;5097571;28;20027;-81
2023/06/27 03:48:47;;;;;;;13.88;9.20;;;;;;;;;;5104233;28;20028;-83
2023/06/27 03:51:12;;;;;;;17.08;8.45;;;;;;;;;;5116446;28;20099;-81
2023/06/27 03:53:38;;;;;;;15.98;10.27;;;;;;;;;;5084493;28;20020;-81
2023/06/27 03:56:04;;;;;;;18.77;10.07;;;;;;;;;;5098220;28;20042;-81
2023/06/27 03:58:29;;;;;;;15.38;10.43;;;;;;;;;;5112707;28;20092;-81
2023/06/27 04:00:55;;;;;;;19.63;10.20;;;;;;;;;;5128636;27;20048;-81
2023/06/27 04:03:20;;;;;;;15.30;10.00;;;;;;;;;;5093774;28;20394;-80
2023/06/27 04:05:46;;;;;;;12.85;9.18;;;;;;;;;;5095269;28;20039;-81
2023/06/27 04:08:11;;;;;;;15.57;9.25;;;;;;;;;;5062205;28;20032;-82
2023/06/27 04:10:37;;;;;;;14.98;9.10;;;;;;;;;;5108239;28;20032;-81
2023/06/27 04:13:03;;;;;;;18.33;9.38;;;;;;;;;;5127597;27;20483;-82
2023/06/27 04:15:28;;;;;;;10.90;7.78;;;;;;;;;;5094754;28;20147;-82
2023/06/27 04:17:54;;;;;;;13.10;8.95;;;;;;;;;;5095277;28;20081;-81
2023/06/27 04:20:19;;;;;;;11.88;8.27;;;;;;;;;;5127658;27;20039;-82
2023/06/27 04:22:45;;;;;;;12.43;8.43;;;;;;;;;;5076530;28;20039;-81
2023/06/27 04:25:11;;;;;;;13.10;8.82;;;;;;;;;;5127701;27;20036;-82
2023/06/27 04:27:39;;;;;;;15.13;8.75;;;;;;;;;;5109215;28;20028;-82
2023/06/27 04:30:05;;;;;;;11.88;8.48;;;;;;;;;;5095971;28;20035;-83
2023/06/27 04:32:33;;;;;;;12.93;8.00;;;;;;;;;;5094378;28;20036;-75
2023/06/27 04:34:58;;;;;;;13.00;8.40;;;;;;;;;;5094399;28;20028;-75
2023/06/27 04:37:24;;;;;;;15.10;8.50;;;;;;;;;;5093557;28;20024;-75
2023/06/27 04:39:49;;;;;;;16.45;8.32;;;;;;;;;;5094370;28;20028;-75
2023/06/27 04:42:16;;;;;;;19.20;8.55;;;;;;;;;;5092725;28;20071;-76
2023/06/27 04:44:42;;;;;;;19.48;8.43;;;;;;;;;;5076688;28;20028;-75
2023/06/27 04:47:07;;;;;;;13.38;8.68;;;;;;;;;;5141453;27;20107;-75
2023/06/27 04:49:32;;;;;;;21.85;8.93;;;;;;;;;;5117081;27;20034;-74
2023/06/27 04:51:58;;;;;;;15.77;9.30;;;;;;;;;;5113112;28;20507;-75
2023/06/27 04:54:23;;;;;;;17.20;9.05;;;;;;;;;;5117885;28;20104;-75
2023/06/27 04:56:49;;;;;;;17.52;9.18;;;;;;;;;;5120844;28;20027;-74
2023/06/27 04:59:17;;;;;;;16.52;9.10;;;;;;;;;;5116931;28;20031;-75
2023/06/27 05:01:42;;;;;;;18.85;9.43;;;;;;;;;;5115014;28;20035;-75
2023/06/27 05:04:07;;;;;;;12.80;8.45;;;;;;;;;;5112359;28;20046;-74
2023/06/27 05:06:33;;;;;;;18.48;9.45;;;;;;;;;;5122442;28;20031;-75
2023/06/27 05:08:59;;;;;;;17.75;9.02;;;;;;;;;;5124898;27;20369;-75
2023/06/27 05:11:27;;;;;;;16.45;9.23;;;;;;;;;;5124140;28;20047;-75
2023/06/27 05:13:53;;;;;;;14.05;8.98;;;;;;;;;;5122321;28;20024;-75
2023/06/27 05:16:19;;;;;;;17.00;9.38;;;;;;;;;;5096617;28;20056;-76
2023/06/27 05:18:45;;;;;;;14.68;9.02;;;;;;;;;;5113566;28;20109;-77
2023/06/27 05:21:10;;;;;;;17.85;9.70;;;;;;;;;;5113088;28;20067;-76
2023/06/27 05:23:37;;;;;;;15.30;8.88;;;;;;;;;;5114606;28;20026;-76
2023/06/27 05:26:03;;;;;;;11.98;8.50;;;;;;;;;;5116731;28;20330;-76
2023/06/27 05:28:29;;;;;;;14.05;9.23;;;;;;;;;;5121750;28;20123;-75
2023/06/27 05:30:55;;;;;;;12.75;8.70;;;;;;;;;;5113337;28;20188;-75
2023/06/27 05:33:21;;;;;;;14.20;8.63;;;;;;;;;;5114186;28;20418;-75
2023/06/27 05:35:47;;;;;;;12.60;8.68;;;;;;;;;;5113660;28;20188;-75
2023/06/27 05:38:13;;;;;;;10.23;7.75;;;;;;;;;;5115674;28;20035;-76
2023/06/27 05:40:38;;;;;;;15.02;8.00;;;;;;;;;;5114415;28;20092;-76
2023/06/27 05:43:04;;;;;;;12.82;8.25;;;;;;;;;;5114137;28;20114;-75
2023/06/27 05:45:29;;;;;;;13.65;8.00;;;;;;;;;;5115987;28;20027;-74
2023/06/27 05:47:55;;;;;;;13.00;8.10;;;;;;;;;;5119349;28;20173;-74
2023/06/27 05:50:21;;;;;;;11.38;8.23;;;;;;;;;;5114189;28;20102;-74
2023/06/27 05:52:48;;;;;;;10.20;6.97;;;;;;;;;;5112360;28;20909;-77
2023/06/27 05:55:13;;;;;;;15.40;8.38;;;;;;;;;;5112897;28;20027;-75
2023/06/27 05:57:39;;;;;;;13.88;7.85;;;;;;;;;;5114754;28;20036;-74
2023/06/27 06:00:10;;;;;;;13.52;7.55;;;;;;;;;;5114554;28;20031;-75
2023/06/27 06:02:37;;;;;;;10.43;6.78;;;;;;;;;;5113627;28;20067;-75
2023/06/27 06:05:03;;;;;;;11.40;6.70;;;;;;;;;;5115159;28;20027;-76
2023/06/27 06:07:28;;;;;;;7.00;6.30;;;;;;;;;;5107602;27;20033;-75
2023/06/27 06:09:54;;;;;;;8.93;6.18;;;;;;;;;;5112320;28;20119;-77
2023/06/27 06:12:20;;;;;;;8.13;6.93;;;;;;;;;;5109326;28;20035;-73
2023/06/27 06:14:45;;;;;;;10.13;6.82;;;;;;;;;;5110925;28;20059;-74
2023/06/27 06:17:12;;;;;;;7.00;6.18;;;;;;;;;;5111782;28;20458;-75
2023/06/27 06:19:37;;;;;;;6.93;5.78;;;;;;;;;;5111860;28;20641;-76
2023/06/27 06:22:03;;;;;;;7.65;5.70;;;;;;;;;;5114099;28;20040;-75
2023/06/27 06:24:28;;;;;;;13.75;5.85;;;;;;;;;;5114613;28;20382;-76
2023/06/27 06:26:54;;;;;;;10.82;5.95;;;;;;;;;;5121169;28;20132;-74
2023/06/27 06:29:19;;;;;;;6.95;5.78;;;;;;;;;;5146551;27;20034;-75
2023/06/27 06:31:45;;;;;;;7.90;6.03;;;;;;;;;;5112972;28;20046;-75
2023/06/27 06:34:11;;;;;;;6.22;5.63;;;;;;;;;;5110764;28;20085;-75
2023/06/27 06:36:37;;;;;;;10.05;5.78;;;;;;;;;;5112735;28;20047;-76
2023/06/27 06:39:02;;;;;;;7.53;5.57;;;;;;;;;;5111596;28;20061;-74
2023/06/27 06:41:27;;;;;;;6.82;5.53;;;;;;;;;;5113265;28;20035;-74
2023/06/27 06:43:53;;;;;;;6.95;5.70;;;;;;;;;;5113977;28;20059;-76
2023/06/27 06:46:18;;;;;;;9.48;5.18;;;;;;;;;;5121623;28;20359;-75
2023/06/27 06:48:44;;;;;;;8.50;5.55;;;;;;;;;;5114905;28;20335;-76
2023/06/27 06:51:09;;;;;;;7.47;5.07;;;;;;;;;;5113554;28;20023;-75
2023/06/27 06:53:35;;;;;;;7.95;5.50;;;;;;;;;;5111461;28;20118;-74
2023/06/27 06:56:02;;;;;;;10.50;5.45;;;;;;;;;;5113880;28;20031;-76
2023/06/27 06:58:27;;;;;;;5.97;5.20;;;;;;;;;;5112742;28;20092;-74
2023/06/27 07:00:53;;;;;;;8.13;5.22;;;;;;;;;;5111923;28;20146;-74
2023/06/27 07:03:18;;;;;;;8.10;5.68;;;;;;;;;;5113422;28;20032;-74
2023/06/27 07:05:44;;;;;;;6.15;5.38;;;;;;;;;;5115897;28;20031;-74
2023/06/27 07:08:11;;;;;;;7.43;4.93;;;;;;;;;;5118284;28;20023;-86
2023/06/27 07:10:36;;;;;;;5.68;5.10;;;;;;;;;;5113398;28;20081;-87
2023/06/27 07:13:02;;;;;;;6.90;4.78;;;;;;;;;;5115008;28;20148;-87
2023/06/27 07:15:28;;;;;;;5.88;4.90;;;;;;;;;;5117418;28;20369;-85
2023/06/27 07:17:54;;;;;;;7.45;4.85;;;;;;;;;;5083162;28;20039;-88
2023/06/27 07:20:20;;;;;;;7.18;5.10;;;;;;;;;;5116159;28;20023;-88
2023/06/27 07:22:46;;;;;;;8.27;4.95;;;;;;;;;;5119890;28;20036;-89
2023/06/27 07:25:12;;;;;;;7.65;5.15;;;;;;;;;;5123376;27;20050;-87
2023/06/27 07:27:37;;;;;;;9.32;5.05;;;;;;;;;;5122383;27;20028;-89
2023/06/27 07:30:03;;;;;;;7.30;5.10;;;;;;;;;;5094267;27;20122;-87
2023/06/27 07:32:32;;;;;;;7.40;4.93;;;;;;;;;;5104576;27;20039;-86
2023/06/27 07:34:58;;;;;;;6.47;5.00;;;;;;;;;;5110051;28;20038;-87
2023/06/27 07:37:27;;;;;;;6.07;5.35;;;;;;;;;;5102554;28;20363;-88
2023/06/27 07:39:52;;;;;;;6.72;5.35;;;;;;;;;;5150932;27;20028;-88
2023/06/27 07:42:17;;;;;;;5.60;5.10;;;;;;;;;;5115246;28;20039;-86
2023/06/27 07:44:43;;;;;;;6.57;5.05;;;;;;;;;;5126535;28;20577;-88
2023/06/27 07:49:39;;;;;;;7.45;4.65;;;;;;;;;;5059426;22;20084;-87
2023/06/27 07:52:09;;;;;;;6.60;5.00;;;;;;;;;;5033027;28;20032;-85
2023/06/27 07:57:56;;;;;;;8.10;4.57;;;;;;;;;;5091766;22;20055;-88
2023/06/27 08:00:22;;;;;;;6.40;5.10;;;;;;;;;;5074567;28;20033;-87
2023/06/27 08:02:48;;;;;;;10.95;5.20;;;;;;;;;;5085438;28;20837;-89
2023/06/27 08:05:18;;;;;;;9.23;5.03;;;;;;;;;;5038892;28;20043;-84
2023/06/27 08:07:43;;;;;;;5.57;4.43;;;;;;;;;;5072527;28;20052;-86
2023/06/27 08:10:11;;;;;;;7.38;4.50;;;;;;;;;;5052847;28;20137;-86
2023/06/27 08:12:37;;;;;;;5.15;4.63;;;;;;;;;;5072910;28;20437;-87
2023/06/27 08:15:03;;;;;;;5.47;4.55;;;;;;;;;;5055059;28;20063;-87
2023/06/27 08:17:29;;;;;;;8.60;4.68;;;;;;;;;;5034242;28;20068;-87
2023/06/27 08:19:54;;;;;;;5.63;4.25;;;;;;;;;;5050757;28;20056;-86
2023/06/27 08:22:20;;;;;;;5.90;4.90;;;;;;;;;;5053575;28;20040;-88
2023/06/27 08:24:45;;;;;;;9.95;5.18;;;;;;;;;;5083640;28;20055;-86
2023/06/27 08:27:11;;;;;;;5.88;4.90;;;;;;;;;;5075123;28;20089;-87
2023/06/27 08:29:36;;;;;;;5.53;4.88;;;;;;;;;;5072731;28;20127;-87
2023/06/27 08:32:02;;;;;;;6.35;4.97;;;;;;;;;;5072543;28;20264;-88
2023/06/27 08:34:31;;;;;;;6.97;4.88;;;;;;;;;;5071942;28;20063;-85
2023/06/27 08:36:57;;;;;;;7.85;4.88;;;;;;;;;;5072993;28;20548;-88
2023/06/27 08:39:22;;;;;;;7.13;4.72;;;;;;;;;;5055641;28;20028;-87
2023/06/27 08:41:48;;;;;;;5.05;4.65;;;;;;;;;;5035386;28;20147;-87
2023/06/27 08:44:14;;;;;;;6.80;4.60;;;;;;;;;;5032370;28;20128;-88
2023/06/27 08:46:39;;;;;;;5.45;4.95;;;;;;;;;;5037867;28;20064;-88
2023/06/27 08:49:10;;;;;;;6.60;4.45;;;;;;;;;;5043945;28;20013;-88
2023/06/27 08:51:36;;;;;;;8.98;4.80;;;;;;;;;;5050393;28;20048;-88
2023/06/27 08:54:06;;;;;;;6.85;5.10;;;;;;;;;;5035838;28;20045;-85
2023/06/27 08:56:32;;;;;;;4.95;4.55;;;;;;;;;;5055919;28;20506;-85
2023/06/27 08:59:03;;;;;;;6.85;4.55;;;;;;;;;;5057324;28;20126;-88
2023/06/27 09:01:31;;;;;;;4.90;4.38;;;;;;;;;;5059610;28;20127;-89
2023/06/27 09:03:58;;;;;;;4.88;3.95;;;;;;;;;;5073421;28;20049;-87
2023/06/27 09:06:24;;;;;;;4.40;4.00;;;;;;;;;;5060926;28;20041;-88
2023/06/27 09:08:49;;;;;;;4.53;4.13;;;;;;;;;;5040060;28;20029;-87
2023/06/27 09:11:16;;;;;;;5.85;4.50;;;;;;;;;;5074333;28;20040;-89
2023/06/27 09:13:41;;;;;;;4.55;4.15;;;;;;;;;;5040962;28;20049;-89
2023/06/27 09:16:07;;;;;;;4.85;4.45;;;;;;;;;;5057159;28;20097;-89
2023/06/27 09:18:34;;;;;;;4.63;3.80;;;;;;;;;;5059330;28;20036;-88
2023/06/27 09:21:00;;;;;;;4.50;4.10;;;;;;;;;;5056071;28;20113;-90
2023/06/27 09:23:28;;;;;;;5.40;4.10;;;;;;;;;;5072987;28;20097;-90
2023/06/27 09:26:11;;;;;;;6.70;4.07;;;;;;;;;;5082603;28;20124;-88
2023/06/27 09:28:49;;;;;;;6.78;4.13;;;;;;;;;;5065706;28;20132;-89
2023/06/27 09:31:21;;;;;;;4.90;4.43;;;;;;;;;;5047662;28;20029;-88
2023/06/27 09:33:48;;;;;;;4.63;4.22;;;;;;;;;;5063832;28;20152;-89
2023/06/27 09:36:35;;;;;;;6.75;4.22;;;;;;;;;;5034333;28;20033;-88
2023/06/27 09:39:04;;;;;;;7.72;4.20;;;;;;;;;;5039926;28;20094;-88
2023/06/27 09:41:49;;;;;;;6.05;4.10;;;;;;;;;;5073592;28;20047;-88
2023/06/27 09:44:16;;;;;;;5.18;4.13;;;;;;;;;;5083451;28;20154;-87
2023/06/27 09:46:46;;;;;;;9.30;4.03;;;;;;;;;;5060755;28;20032;-87
2023/06/27 09:49:12;;;;;;;4.78;4.32;;;;;;;;;;5073357;28;20028;-88
2023/06/27 09:51:37;;;;;;;7.05;4.30;;;;;;;;;;5072978;28;20044;-88
2023/06/27 09:54:03;;;;;;;5.88;4.03;;;;;;;;;;5075095;28;20364;-89
2023/06/27 09:56:32;;;;;;;4.47;4.07;;;;;;;;;;5060387;28;20037;-86
2023/06/27 09:59:11;;;;;;;5.30;4.80;;;;;;;;;;5058222;28;20442;-88
2023/06/27 10:01:37;;;;;;;6.07;4.75;;;;;;;;;;5080035;28;20029;-85
2023/06/27 10:04:03;;;;;;;8.23;4.50;;;;;;;;;;5085346;28;20029;-87
2023/06/27 10:06:29;;;;;;;6.50;4.80;;;;;;;;;;5076516;28;20131;-88
2023/06/27 10:08:55;;;;;;;4.88;4.47;;;;;;;;;;5057418;28;20195;-86
2023/06/27 10:11:21;;;;;;;7.82;4.85;;;;;;;;;;5089803;28;20031;-88
2023/06/27 10:14:08;;;;;;;4.95;4.53;;;;;;;;;;5056523;28;20467;-89
2023/06/27 10:16:34;;;;;;;13.53;5.10;;;;;;;;;;5073764;28;20032;-89
2023/06/27 10:19:00;;;;;;;7.72;4.30;;;;;;;;;;5056046;28;20755;-89
2023/06/27 10:21:26;;;;;;;8.60;4.82;;;;;;;;;;5059761;28;20439;-88
2023/06/27 10:23:53;;;;;;;8.98;4.55;;;;;;;;;;5053520;28;20040;-89
2023/06/27 10:26:19;;;;;;;7.50;5.05;;;;;;;;;;5046758;28;20123;-88
2023/06/27 10:28:49;;;;;;;5.32;4.82;;;;;;;;;;5059863;28;20076;-88
2023/06/27 10:31:42;;;;;;;5.28;4.63;;;;;;;;;;5098403;28;20013;-89
2023/06/27 10:34:10;;;;;;;6.53;4.72;;;;;;;;;;5090276;28;20037;-89
2023/06/27 10:36:51;;;;;;;9.48;5.00;;;;;;;;;;5077511;28;20358;-90
2023/06/27 10:39:33;;;;;;;7.03;4.72;;;;;;;;;;5076233;28;20043;-89
2023/06/27 10:42:19;;;;;;;5.47;4.68;;;;;;;;;;5084145;28;20037;-88
2023/06/27 10:45:06;;;;;;;5.78;4.65;;;;;;;;;;5063445;28;20041;-89
2023/06/27 10:47:38;;;;;;;24.10;5.73;;;;;;;;;;5075436;28;20177;-89
2023/06/27 10:50:05;;;;;;;10.55;6.00;;;;;;;;;;5059114;28;20032;-88
2023/06/27 10:52:31;;;;;;;10.50;8.10;;;;;;;;;;5075869;28;20081;-86
2023/06/27 10:55:18;;;;;;;5.63;4.60;;;;;;;;;;5076389;28;20447;-87
2023/06/27 10:58:06;;;;;;;5.70;4.80;;;;;;;;;;5076418;28;20044;-88
2023/06/27 11:00:32;;;;;;;8.53;4.63;;;;;;;;;;5078786;28;20039;-87
2023/06/27 11:02:58;;;;;;;8.57;4.47;;;;;;;;;;5053954;28;20290;-86
2023/06/27 11:05:57;;;;;;;6.03;4.80;;;;;;;;;;5061165;28;20024;-87
2023/06/27 11:08:28;;;;;;;8.68;4.88;;;;;;;;;;5077012;28;20463;-87
2023/06/27 11:10:59;;;;;;;8.98;4.53;;;;;;;;;;5081371;28;20092;-86
2023/06/27 11:13:29;;;;;;;5.15;4.43;;;;;;;;;;5081792;28;20094;-86
2023/06/27 11:15:55;;;;;;;5.60;4.47;;;;;;;;;;5059572;28;20036;-87
2023/06/27 11:18:22;;;;;;;5.50;4.80;;;;;;;;;;5043646;28;20020;-88
2023/06/27 11:20:48;;;;;;;11.13;5.10;;;;;;;;;;5074093;28;20032;-89
2023/06/27 11:23:14;;;;;;;7.55;4.82;;;;;;;;;;5058749;28;20108;-89
2023/06/27 11:25:45;;;;;;;5.95;5.18;;;;;;;;;;5095889;28;20036;-89
2023/06/27 11:28:12;;;;;;;5.55;4.60;;;;;;;;;;5096566;28;20012;-90
2023/06/27 11:30:38;;;;;;;6.18;5.10;;;;;;;;;;5044230;28;20040;-88
2023/06/27 11:33:03;;;;;;;8.18;4.63;;;;;;;;;;5061523;28;20102;-90
2023/06/27 11:35:30;;;;;;;8.07;6.25;;;;;;;;;;5062408;28;20088;-88
2023/06/27 11:37:56;;;;;;;7.55;5.95;;;;;;;;;;5048766;28;20081;-89
2023/06/27 11:40:22;;;;;;;6.85;5.30;;;;;;;;;;5078095;28;20032;-89
2023/06/27 11:42:47;;;;;;;12.43;5.38;;;;;;;;;;5082253;28;20449;-90
2023/06/27 11:45:13;;;;;;;6.75;5.32;;;;;;;;;;5045110;28;20024;-89
2023/06/27 11:47:39;;;;;;;8.20;5.63;;;;;;;;;;5060795;28;20096;-87
2023/06/27 11:50:08;;;;;;;9.73;5.90;;;;;;;;;;5064765;28;20039;-92
2023/06/27 11:52:35;;;;;;;6.82;5.53;;;;;;;;;;5079258;28;20028;-88
2023/06/27 11:55:01;;;;;;;9.10;5.50;;;;;;;;;;5046429;28;20462;-89
2023/06/27 11:57:54;;;;;;;10.98;5.43;;;;;;;;;;5048771;28;20025;-89
2023/06/27 12:00:27;;;;;;;6.93;5.25;;;;;;;;;;5062357;28;20033;-89
2023/06/27 12:02:53;;;;;;;9.45;5.80;;;;;;;;;;5071304;28;20032;-89
2023/06/27 12:05:20;;;;;;;6.72;5.65;;;;;;;;;;5079097;28;20031;-90
2023/06/27 12:08:04;;;;;;;9.05;5.70;;;;;;;;;;5052349;28;20040;-90
2023/06/27 12:10:52;;;;;;;7.43;5.35;;;;;;;;;;5049051;28;20032;-91
2023/06/27 12:13:19;;;;;;;10.07;5.28;;;;;;;;;;5065503;28;20033;-91
2023/06/27 12:15:45;;;;;;;9.13;6.10;;;;;;;;;;5081553;28;20021;-90
2023/06/27 12:18:19;;;;;;;8.07;5.30;;;;;;;;;;5060915;28;20111;-91
2023/06/27 12:20:45;;;;;;;5.72;5.07;;;;;;;;;;5048209;28;20031;-91
2023/06/27 12:23:11;;;;;;;9.52;5.18;;;;;;;;;;5065999;28;20036;-89
2023/06/27 12:25:39;;;;;;;12.93;5.22;;;;;;;;;;5080802;28;20092;-90
2023/06/27 12:28:05;;;;;;;9.23;5.60;;;;;;;;;;5060549;28;20033;-91
2023/06/27 12:30:31;;;;;;;6.13;4.82;;;;;;;;;;5050242;28;20082;-89
2023/06/27 12:32:56;;;;;;;5.68;5.03;;;;;;;;;;5067340;28;20122;-89
2023/06/27 12:35:22;;;;;;;5.32;4.75;;;;;;;;;;5068100;28;20043;-89
2023/06/27 12:37:47;;;;;;;5.00;4.50;;;;;;;;;;5074483;28;20024;-88
2023/06/27 12:40:15;;;;;;;6.05;4.68;;;;;;;;;;5069426;28;20028;-89
2023/06/27 12:42:41;;;;;;;5.13;4.63;;;;;;;;;;5079405;28;20096;-89
2023/06/27 12:45:07;;;;;;;8.40;4.57;;;;;;;;;;5093217;28;20036;-89
2023/06/27 12:47:32;;;;;;;7.75;5.00;;;;;;;;;;5095392;28;20032;-88
2023/06/27 12:49:58;;;;;;;9.70;4.97;;;;;;;;;;5085256;28;20086;-89
2023/06/27 12:52:23;;;;;;;6.78;5.20;;;;;;;;;;5061844;28;20033;-90
2023/06/27 12:54:49;;;;;;;6.35;4.63;;;;;;;;;;5054306;28;20025;-88
2023/06/27 12:57:14;;;;;;;9.82;4.85;;;;;;;;;;5058976;28;20370;-88
2023/06/27 12:59:40;;;;;;;8.07;4.95;;;;;;;;;;5076231;28;20032;-88
2023/06/27 13:02:06;;;;;;;5.32;4.82;;;;;;;;;;5059541;28;20037;-88
2023/06/27 13:04:31;;;;;;;7.18;4.70;;;;;;;;;;5042673;28;20449;-89
2023/06/27 13:07:00;;;;;;;4.93;4.47;;;;;;;;;;5074739;28;20385;-90
2023/06/27 13:09:25;;;;;;;5.93;5.05;;;;;;;;;;5073791;28;20035;-89
2023/06/27 13:11:51;;;;;;;5.72;5.10;;;;;;;;;;5056352;28;20048;-90
2023/06/27 13:14:17;;;;;;;6.60;5.00;;;;;;;;;;5074674;28;20043;-90
2023/06/27 13:16:42;;;;;;;5.93;5.07;;;;;;;;;;5058436;28;20024;-87
2023/06/27 13:19:08;;;;;;;8.80;4.97;;;;;;;;;;5077462;28;20036;-89
2023/06/27 13:21:34;;;;;;;10.02;5.05;;;;;;;;;;5048237;28;20028;-88
2023/06/27 13:24:00;;;;;;;6.25;4.90;;;;;;;;;;5060027;28;20439;-88
2023/06/27 13:26:26;;;;;;;5.60;5.03;;;;;;;;;;5043408;28;20029;-88
2023/06/27 13:28:52;;;;;;;5.55;4.60;;;;;;;;;;5077375;28;20375;-88
2023/06/27 13:31:17;;;;;;;5.22;4.72;;;;;;;;;;5082569;28;20033;-89
2023/06/27 13:33:43;;;;;;;6.97;4.72;;;;;;;;;;5046612;28;20032;-88
2023/06/27 13:36:09;;;;;;;6.28;5.13;;;;;;;;;;5080595;28;20422;-89
2023/06/27 13:38:34;;;;;;;5.07;4.50;;;;;;;;;;5065369;28;20035;-88
2023/06/27 13:41:01;;;;;;;5.32;4.15;;;;;;;;;;5075935;28;20029;-89
2023/06/27 13:43:27;;;;;;;5.85;4.50;;;;;;;;;;5091593;28;20028;-88
2023/06/27 13:45:54;;;;;;;7.13;4.72;;;;;;;;;;5075183;28;20096;-88
2023/06/27 13:48:21;;;;;;;6.78;4.88;;;;;;;;;;5056396;28;20033;-88
2023/06/27 13:50:48;;;;;;;5.22;4.72;;;;;;;;;;5054890;28;20123;-87
2023/06/27 13:53:14;;;;;;;5.55;4.78;;;;;;;;;;5091595;28;20059;-86
2023/06/27 13:55:39;;;;;;;9.52;4.85;;;;;;;;;;5047365;28;20040;-87
2023/06/27 13:58:05;;;;;;;7.93;4.72;;;;;;;;;;5045635;28;20048;-88
2023/06/27 14:00:30;;;;;;;6.78;4.63;;;;;;;;;;5084323;28;20115;-90
2023/06/27 14:02:56;;;;;;;7.28;5.18;;;;;;;;;;5069518;28;20040;-89
2023/06/27 14:05:23;;;;;;;6.65;4.78;;;;;;;;;;5082095;28;20036;-88
2023/06/27 14:07:48;;;;;;;5.85;4.68;;;;;;;;;;5077539;28;20051;-88
2023/06/27 14:10:14;;;;;;;5.20;4.50;;;;;;;;;;5060236;28;20029;-88
2023/06/27 14:12:39;;;;;;;5.80;4.53;;;;;;;;;;5059947;28;20372;-88
2023/06/27 14:15:05;;;;;;;8.55;4.45;;;;;;;;;;5061354;28;20028;-88
2023/06/27 14:17:32;;;;;;;5.20;4.65;;;;;;;;;;5080447;28;20036;-90
2023/06/27 14:19:57;;;;;;;5.82;3.88;;;;;;;;;;5078917;28;20043;-88
2023/06/27 14:22:23;;;;;;;5.18;4.18;;;;;;;;;;5087427;28;20460;-89
2023/06/27 14:24:48;;;;;;;6.53;4.07;;;;;;;;;;5079989;28;20048;-88
2023/06/27 14:29:49;;;;;;;5.72;4.68;;;;;;;;;;5364771;22;20056;-88
2023/06/27 14:32:14;;;;;;;6.88;4.30;;;;;;;;;;5119049;28;20046;-88
2023/06/27 14:34:43;;;;;;;8.35;4.18;;;;;;;;;;5178890;22;20051;-88
2023/06/27 14:37:30;;;;;;;5.70;3.80;;;;;;;;;;5060911;28;20049;-89
2023/06/27 14:39:59;;;;;;;4.50;4.07;;;;;;;;;;5098040;28;20032;-89
2023/06/27 14:42:24;;;;;;;5.82;4.03;;;;;;;;;;5097857;28;20103;-88
2023/06/27 14:44:49;;;;;;;5.18;4.40;;;;;;;;;;5068090;28;20040;-88